Time;durP1;ratioP1;P1;durP2;ratioP2;P2;SDS_P1;SDS_P2;PMS_P1;PMS_P2;Temp;Humidity;BMP_temperature;BMP_pressure;BME280_temperature;BME280_humidity;BME280_pressure;Samples;Min_cycle;Max_cycle;Signal;HPM_P1;HPM_P2
2022/03/17 00:00:44;;;;;;;60.40;35.25;;;7.40;99.90;;;;;;5109267;28;20056;-40
2022/03/17 00:03:09;;;;;;;61.90;36.67;;;7.40;99.90;;;;;;5107616;28;20030;-40
2022/03/17 00:05:36;;;;;;;57.88;33.30;;;7.40;99.90;;;;;;5109057;28;20024;-39
2022/03/17 00:08:03;;;;;;;61.65;34.20;;;7.30;99.90;;;;;;5099831;28;20016;-40
2022/03/17 00:10:29;;;;;;;66.32;36.03;;;7.30;99.90;;;;;;5106457;28;20027;-39
2022/03/17 00:12:54;;;;;;;59.88;34.22;;;7.20;99.90;;;;;;5109263;28;20456;-39
2022/03/17 00:15:20;;;;;;;67.13;35.25;;;7.20;99.90;;;;;;5109000;28;20032;-39
2022/03/17 00:17:46;;;;;;;65.15;35.15;;;7.30;99.90;;;;;;5108404;28;20106;-39
2022/03/17 00:20:12;;;;;;;64.68;37.55;;;7.20;99.90;;;;;;5108555;28;20549;-40
2022/03/17 00:22:38;;;;;;;66.63;37.78;;;7.20;99.90;;;;;;5111300;28;20076;-39
2022/03/17 00:25:05;;;;;;;61.97;35.63;;;7.20;99.90;;;;;;5111582;28;20035;-40
2022/03/17 00:27:32;;;;;;;72.85;39.88;;;7.20;99.90;;;;;;5112417;28;20030;-40
2022/03/17 00:29:58;;;;;;;65.32;36.67;;;7.20;99.90;;;;;;5112761;28;20031;-40
2022/03/17 00:32:23;;;;;;;65.88;39.25;;;7.20;99.90;;;;;;5113098;28;20035;-39
2022/03/17 00:37:33;;;;;;;68.50;38.42;;;7.20;99.90;;;;;;5107670;28;20108;-39
2022/03/17 00:39:59;;;;;;;72.45;39.75;;;7.20;99.90;;;;;;5104525;28;20258;-40
2022/03/17 00:42:24;;;;;;;66.25;38.03;;;7.10;99.90;;;;;;5112854;28;20030;-40
2022/03/17 00:44:50;;;;;;;71.47;38.28;;;7.10;99.90;;;;;;5112982;28;20033;-40
2022/03/17 00:47:16;;;;;;;73.75;39.45;;;7.10;99.90;;;;;;5112483;28;20150;-40
2022/03/17 00:49:41;;;;;;;68.85;37.58;;;7.10;99.90;;;;;;5112557;28;20475;-40
2022/03/17 00:52:10;;;;;;;76.65;39.25;;;7.10;99.90;;;;;;5112132;28;20468;-39
2022/03/17 00:54:36;;;;;;;71.03;40.03;;;7.10;99.90;;;;;;5112394;28;20107;-39
2022/03/17 00:57:02;;;;;;;76.20;41.33;;;7.10;99.90;;;;;;5102905;28;20024;-40
2022/03/17 00:59:28;;;;;;;71.57;39.22;;;7.10;99.90;;;;;;5109727;28;20032;-40
2022/03/17 01:01:53;;;;;;;78.78;40.13;;;7.10;99.90;;;;;;5112249;28;20092;-40
2022/03/17 01:04:19;;;;;;;70.00;38.38;;;7.10;99.90;;;;;;5112222;28;20024;-40
2022/03/17 01:06:45;;;;;;;66.00;39.00;;;7.10;99.90;;;;;;5110637;28;20027;-39
2022/03/17 01:09:10;;;;;;;73.35;40.17;;;7.10;99.90;;;;;;5112132;28;20291;-39
2022/03/17 01:11:36;;;;;;;72.07;39.85;;;7.10;99.90;;;;;;5112009;28;20026;-39
2022/03/17 01:14:01;;;;;;;73.63;39.53;;;7.00;99.90;;;;;;5112400;28;20027;-39
2022/03/17 01:16:27;;;;;;;69.88;38.67;;;7.00;99.90;;;;;;5111987;28;20023;-39
2022/03/17 01:18:52;;;;;;;70.55;39.13;;;7.00;99.90;;;;;;5111200;28;20034;-39
2022/03/17 01:21:18;;;;;;;69.65;41.15;;;7.00;99.90;;;;;;5111973;28;20557;-39
2022/03/17 01:23:43;;;;;;;71.45;39.80;;;7.00;99.90;;;;;;5112144;28;20273;-39
2022/03/17 01:26:09;;;;;;;68.97;39.78;;;7.00;99.90;;;;;;5109721;28;20012;-39
2022/03/17 01:28:34;;;;;;;72.00;41.55;;;7.00;99.90;;;;;;5102609;28;20391;-40
2022/03/17 01:31:00;;;;;;;68.00;39.05;;;7.00;99.90;;;;;;5110533;28;20032;-40
2022/03/17 01:33:25;;;;;;;74.25;40.80;;;7.00;99.90;;;;;;5111111;28;20024;-40
2022/03/17 01:35:51;;;;;;;66.65;38.88;;;7.00;99.90;;;;;;5111675;28;20028;-39
2022/03/17 01:38:16;;;;;;;74.30;41.85;;;7.00;99.90;;;;;;5100562;28;20054;-40
2022/03/17 01:40:42;;;;;;;73.50;39.35;;;7.00;99.90;;;;;;5110637;28;20019;-40
2022/03/17 01:43:07;;;;;;;73.10;39.42;;;7.00;99.90;;;;;;5111454;28;20199;-40
2022/03/17 01:45:34;;;;;;;70.68;39.50;;;7.00;99.90;;;;;;5111486;28;20421;-39
2022/03/17 01:47:59;;;;;;;73.20;40.35;;;7.00;99.90;;;;;;5110935;28;20038;-39
2022/03/17 01:50:25;;;;;;;78.47;42.72;;;7.00;99.90;;;;;;5111411;28;20573;-40
2022/03/17 01:52:51;;;;;;;68.45;38.83;;;7.00;99.90;;;;;;5111040;28;20111;-40
2022/03/17 01:55:18;;;;;;;68.32;39.80;;;7.00;99.90;;;;;;5111289;28;20161;-40
2022/03/17 01:57:43;;;;;;;70.60;40.03;;;7.00;99.90;;;;;;5110957;28;20027;-39
2022/03/17 02:00:17;;;;;;;71.32;39.90;;;7.00;99.90;;;;;;5109633;28;20080;-40
2022/03/17 02:02:47;;;;;;;76.45;42.33;;;6.90;99.90;;;;;;5098731;28;20384;-39
2022/03/17 02:05:13;;;;;;;78.30;42.40;;;6.90;99.90;;;;;;5089748;28;20016;-40
2022/03/17 02:07:51;;;;;;;72.00;40.97;;;6.90;99.90;;;;;;5088973;28;20027;-40
2022/03/17 02:10:17;;;;;;;79.38;43.60;;;6.90;99.90;;;;;;5086294;28;20035;-40
2022/03/17 02:15:28;;;;;;;76.85;42.45;;;6.90;99.90;;;;;;5089118;28;20491;-39
2022/03/17 02:17:54;;;;;;;75.38;41.17;;;6.90;99.90;;;;;;5088344;28;20036;-40
2022/03/17 02:20:20;;;;;;;73.60;41.05;;;7.00;99.90;;;;;;5087250;28;20492;-39
2022/03/17 02:22:48;;;;;;;74.60;41.00;;;6.90;99.90;;;;;;5088576;28;20047;-40
2022/03/17 02:25:34;;;;;;;75.53;43.08;;;6.90;99.90;;;;;;5088950;28;20499;-40
2022/03/17 02:28:02;;;;;;;78.50;41.95;;;6.90;99.90;;;;;;5087129;28;20451;-40
2022/03/17 02:30:29;;;;;;;75.82;41.50;;;6.90;99.90;;;;;;5082641;28;20016;-40
2022/03/17 02:33:03;;;;;;;71.43;39.70;;;6.90;99.90;;;;;;5078369;28;20392;-40
2022/03/17 02:35:29;;;;;;;78.05;42.03;;;6.80;99.90;;;;;;5077808;28;20279;-40
2022/03/17 02:37:55;;;;;;;74.35;41.58;;;6.90;99.90;;;;;;5078852;28;20020;-40
2022/03/17 02:40:21;;;;;;;75.40;40.72;;;6.90;99.90;;;;;;5079830;28;20035;-40
2022/03/17 02:42:46;;;;;;;78.00;43.35;;;6.90;99.90;;;;;;5079499;28;20022;-40
2022/03/17 02:45:12;;;;;;;76.25;40.92;;;6.90;99.90;;;;;;5077373;28;20020;-40
2022/03/17 02:47:39;;;;;;;76.88;41.95;;;6.90;99.90;;;;;;5077723;28;20084;-40
2022/03/17 02:50:06;;;;;;;73.55;41.60;;;6.90;99.90;;;;;;5080020;28;20028;-40
2022/03/17 02:52:31;;;;;;;78.32;41.83;;;6.90;99.90;;;;;;5077960;28;20016;-40
2022/03/17 02:54:57;;;;;;;74.05;41.13;;;6.80;99.90;;;;;;5078725;28;20472;-40
2022/03/17 02:57:23;;;;;;;71.13;41.65;;;6.80;99.90;;;;;;5079079;28;20025;-40
2022/03/17 02:59:49;;;;;;;76.85;43.92;;;6.90;99.90;;;;;;5077627;28;20032;-40
2022/03/17 03:02:15;;;;;;;71.45;41.17;;;6.80;99.90;;;;;;5079132;28;20054;-39
2022/03/17 03:04:41;;;;;;;78.65;41.45;;;6.80;99.90;;;;;;5079425;28;20111;-39
2022/03/17 03:07:08;;;;;;;69.57;41.63;;;6.80;99.90;;;;;;5075643;28;20047;-40
2022/03/17 03:09:34;;;;;;;77.03;41.90;;;6.80;99.90;;;;;;5082324;28;20038;-39
2022/03/17 03:12:00;;;;;;;74.70;41.78;;;6.80;99.90;;;;;;5079226;28;20097;-39
2022/03/17 03:14:26;;;;;;;78.28;43.00;;;6.80;99.90;;;;;;5077792;28;20252;-39
2022/03/17 03:16:52;;;;;;;77.88;42.47;;;6.80;99.90;;;;;;5077187;28;20407;-39
2022/03/17 03:19:18;;;;;;;76.68;41.63;;;6.80;99.90;;;;;;5077400;28;20271;-39
2022/03/17 03:21:43;;;;;;;76.00;41.92;;;6.90;99.90;;;;;;5077453;28;20388;-39
2022/03/17 03:24:10;;;;;;;77.80;42.90;;;6.90;99.90;;;;;;5078135;28;20040;-39
2022/03/17 03:26:35;;;;;;;77.68;42.70;;;6.90;99.90;;;;;;5078324;28;20012;-39
2022/03/17 03:29:03;;;;;;;80.93;43.85;;;6.90;99.90;;;;;;5077063;28;20113;-39
2022/03/17 03:31:29;;;;;;;73.15;41.90;;;6.90;99.90;;;;;;5079455;28;20038;-39
2022/03/17 03:33:54;;;;;;;77.78;41.88;;;6.90;99.90;;;;;;5079327;28;20385;-39
2022/03/17 03:39:04;;;;;;;77.22;42.28;;;6.80;99.90;;;;;;5079343;28;20133;-39
2022/03/17 03:41:30;;;;;;;74.80;41.50;;;6.80;99.90;;;;;;5079243;28;20476;-40
2022/03/17 03:43:55;;;;;;;77.18;42.97;;;6.80;99.90;;;;;;5078039;28;20047;-39
2022/03/17 03:46:22;;;;;;;82.35;44.72;;;6.80;99.90;;;;;;5079967;28;20028;-39
2022/03/17 03:48:47;;;;;;;73.25;42.85;;;6.70;99.90;;;;;;5076333;28;20497;-39
2022/03/17 03:51:13;;;;;;;77.32;42.95;;;6.80;99.90;;;;;;5078513;28;20038;-39
2022/03/17 03:56:22;;;;;;;77.35;43.60;;;6.80;99.90;;;;;;5078585;28;20124;-40
2022/03/17 03:58:48;;;;;;;75.32;43.60;;;6.70;99.90;;;;;;5076320;28;20115;-40
2022/03/17 04:01:13;;;;;;;84.03;44.53;;;6.70;99.90;;;;;;5078996;28;20025;-40
2022/03/17 04:03:42;;;;;;;77.75;43.08;;;6.70;99.90;;;;;;5077975;28;20073;-39
2022/03/17 04:06:07;;;;;;;78.07;43.85;;;6.70;99.90;;;;;;5078863;28;20113;-40
2022/03/17 04:08:33;;;;;;;77.32;44.20;;;6.70;99.90;;;;;;5082438;28;20119;-39
2022/03/17 04:11:00;;;;;;;81.22;44.35;;;6.70;99.90;;;;;;5108767;28;20466;-40
2022/03/17 04:13:25;;;;;;;86.97;45.40;;;6.70;99.90;;;;;;5108752;28;20026;-40
2022/03/17 04:15:51;;;;;;;78.72;44.10;;;6.70;99.90;;;;;;5108665;28;20472;-39
2022/03/17 04:18:16;;;;;;;82.47;42.78;;;6.70;99.90;;;;;;5088901;28;20089;-40
2022/03/17 04:20:41;;;;;;;83.43;45.42;;;6.70;99.90;;;;;;5087808;28;20024;-39
2022/03/17 04:23:07;;;;;;;77.50;43.22;;;6.70;99.90;;;;;;5068632;28;20095;-40
2022/03/17 04:25:32;;;;;;;76.57;42.40;;;6.70;99.90;;;;;;5068375;28;20027;-40
2022/03/17 04:27:58;;;;;;;84.25;44.47;;;6.70;99.90;;;;;;5067686;28;20021;-39
2022/03/17 04:30:23;;;;;;;83.55;43.80;;;6.70;99.90;;;;;;5077686;28;20033;-39
2022/03/17 04:32:49;;;;;;;78.43;43.80;;;6.70;99.90;;;;;;5079689;28;20020;-40
2022/03/17 04:35:15;;;;;;;83.25;45.58;;;6.70;99.90;;;;;;5078534;28;20401;-40
2022/03/17 04:37:40;;;;;;;78.22;44.55;;;6.70;99.90;;;;;;5079361;28;20024;-40
2022/03/17 04:40:07;;;;;;;81.43;44.47;;;6.70;99.90;;;;;;5080233;28;20052;-40
2022/03/17 04:42:32;;;;;;;83.38;45.67;;;6.70;99.90;;;;;;5075771;28;20023;-40
2022/03/17 04:44:58;;;;;;;79.03;42.50;;;6.60;99.90;;;;;;5073766;28;20017;-39
2022/03/17 04:47:23;;;;;;;81.13;44.45;;;6.60;99.90;;;;;;5066784;28;20021;-48
2022/03/17 04:49:49;;;;;;;79.57;42.58;;;6.60;99.90;;;;;;5068716;28;20096;-46
2022/03/17 04:54:58;;;;;;;84.38;43.63;;;6.50;99.90;;;;;;5069155;28;20460;-45
2022/03/17 04:57:25;;;;;;;79.13;43.47;;;6.60;99.90;;;;;;5083948;28;20023;-48
2022/03/17 04:59:51;;;;;;;77.72;44.83;;;6.60;99.90;;;;;;5100942;28;20495;-47
2022/03/17 05:02:16;;;;;;;87.07;44.65;;;6.60;99.90;;;;;;5109072;28;20023;-46
2022/03/17 05:04:42;;;;;;;75.95;43.15;;;6.70;99.90;;;;;;5109016;28;20016;-47
2022/03/17 05:07:07;;;;;;;82.40;45.38;;;6.70;99.90;;;;;;5100405;28;20506;-45
2022/03/17 05:09:33;;;;;;;77.13;43.50;;;6.60;99.90;;;;;;5100096;28;20105;-46
2022/03/17 05:11:58;;;;;;;74.65;43.67;;;6.60;99.90;;;;;;5112942;28;20022;-46
2022/03/17 05:14:24;;;;;;;78.32;44.78;;;6.60;99.90;;;;;;5112906;28;20020;-46
2022/03/17 05:16:49;;;;;;;80.88;45.22;;;6.60;99.90;;;;;;5112490;28;20024;-45
2022/03/17 05:19:15;;;;;;;78.97;44.05;;;6.60;99.90;;;;;;5110923;28;20030;-45
2022/03/17 05:21:40;;;;;;;80.53;44.58;;;6.60;99.90;;;;;;5088095;28;20020;-45
2022/03/17 05:24:06;;;;;;;82.57;45.83;;;6.60;99.90;;;;;;5080372;28;20016;-45
2022/03/17 05:26:31;;;;;;;80.50;43.97;;;6.60;99.90;;;;;;5076794;28;20027;-47
2022/03/17 05:28:57;;;;;;;84.05;44.55;;;6.70;99.90;;;;;;5081764;28;20020;-46
2022/03/17 05:31:23;;;;;;;80.25;43.15;;;6.70;99.90;;;;;;5079895;28;20051;-48
2022/03/17 05:33:48;;;;;;;79.00;44.95;;;6.70;99.90;;;;;;5081731;28;20029;-45
2022/03/17 05:36:14;;;;;;;81.07;44.97;;;6.70;99.90;;;;;;5074064;28;20071;-46
2022/03/17 05:38:39;;;;;;;77.18;45.10;;;6.70;99.90;;;;;;5089104;28;20021;-48
2022/03/17 05:41:05;;;;;;;80.03;44.80;;;6.70;99.90;;;;;;5083341;28;20024;-45
2022/03/17 05:43:31;;;;;;;76.53;42.60;;;6.70;99.90;;;;;;5080679;28;20039;-39
2022/03/17 05:45:57;;;;;;;84.85;45.88;;;6.70;99.90;;;;;;5081462;28;20016;-39
2022/03/17 05:48:22;;;;;;;82.00;44.92;;;6.70;99.90;;;;;;5078822;28;20495;-45
2022/03/17 05:50:48;;;;;;;79.57;44.35;;;6.70;99.90;;;;;;5082516;28;20020;-45
2022/03/17 05:53:13;;;;;;;84.10;46.88;;;6.70;99.90;;;;;;5089556;28;20484;-45
2022/03/17 05:55:39;;;;;;;79.57;45.65;;;6.70;99.90;;;;;;5091086;28;20024;-46
2022/03/17 05:58:05;;;;;;;84.18;48.08;;;6.80;99.90;;;;;;5090574;28;20024;-45
2022/03/17 06:00:31;;;;;;;76.35;44.83;;;6.80;99.90;;;;;;5090848;28;20063;-45
2022/03/17 06:02:58;;;;;;;79.80;44.78;;;6.80;99.90;;;;;;5091028;28;20020;-46
2022/03/17 06:05:24;;;;;;;80.75;47.25;;;6.70;99.90;;;;;;5090536;28;20016;-46
2022/03/17 06:07:51;;;;;;;82.63;47.88;;;6.80;99.90;;;;;;5086119;28;20026;-47
2022/03/17 06:10:21;;;;;;;82.93;46.63;;;6.80;99.90;;;;;;5102085;28;20511;-46
2022/03/17 06:12:48;;;;;;;83.05;45.22;;;6.80;99.90;;;;;;5109977;28;20069;-46
2022/03/17 06:15:14;;;;;;;82.68;46.35;;;6.90;99.90;;;;;;5109522;28;20031;-45
2022/03/17 06:17:48;;;;;;;83.88;45.17;;;6.90;99.90;;;;;;5109337;28;20034;-48
2022/03/17 06:20:15;;;;;;;75.65;42.67;;;6.90;99.90;;;;;;5100484;28;20311;-46
2022/03/17 06:22:42;;;;;;;80.38;45.75;;;6.90;99.90;;;;;;5108956;28;20483;-47
2022/03/17 06:25:10;;;;;;;83.80;46.90;;;6.90;99.90;;;;;;5109733;28;20102;-40
2022/03/17 06:27:36;;;;;;;78.50;44.97;;;6.90;99.90;;;;;;5108753;28;20061;-38
2022/03/17 06:30:06;;;;;;;83.75;46.83;;;7.00;99.90;;;;;;5110823;28;20042;-39
2022/03/17 06:32:33;;;;;;;76.95;45.15;;;7.00;99.90;;;;;;5100928;28;20089;-39
2022/03/17 06:34:59;;;;;;;83.22;45.95;;;7.00;99.90;;;;;;5101665;28;20034;-39
2022/03/17 06:37:25;;;;;;;95.35;48.63;;;7.10;99.90;;;;;;5103717;28;21091;-39
2022/03/17 06:39:50;;;;;;;81.28;45.35;;;7.10;99.90;;;;;;5101762;28;20024;-39
2022/03/17 06:42:16;;;;;;;78.15;44.53;;;7.10;99.90;;;;;;5110243;28;20024;-39
2022/03/17 06:44:41;;;;;;;75.82;44.50;;;7.10;99.90;;;;;;5110225;28;20059;-39
2022/03/17 06:47:07;;;;;;;86.95;49.25;;;7.10;99.90;;;;;;5109386;28;20019;-39
2022/03/17 06:49:32;;;;;;;85.13;48.22;;;7.20;99.90;;;;;;5110199;28;20459;-39
2022/03/17 06:51:58;;;;;;;85.75;46.78;;;7.20;99.90;;;;;;5109867;28;20042;-39
2022/03/17 06:54:24;;;;;;;88.68;47.95;;;7.20;99.90;;;;;;5110071;28;20207;-39
2022/03/17 06:56:49;;;;;;;79.57;45.90;;;7.20;99.90;;;;;;5109605;28;20472;-39
2022/03/17 06:59:15;;;;;;;82.05;48.40;;;7.20;99.90;;;;;;5109575;28;20031;-39
2022/03/17 07:01:41;;;;;;;81.70;47.47;;;7.30;99.90;;;;;;5110025;28;20054;-39
2022/03/17 07:04:06;;;;;;;81.60;47.15;;;7.40;99.90;;;;;;5107976;28;20110;-39
2022/03/17 07:06:31;;;;;;;81.22;45.75;;;7.40;99.90;;;;;;5087811;28;20028;-39
2022/03/17 07:08:57;;;;;;;84.03;46.03;;;7.40;99.90;;;;;;5089504;28;20020;-39
2022/03/17 07:11:22;;;;;;;83.50;46.60;;;7.50;99.90;;;;;;5105948;28;20328;-39
2022/03/17 07:13:48;;;;;;;79.78;46.17;;;7.50;99.90;;;;;;5109082;28;20019;-39
2022/03/17 07:16:13;;;;;;;81.30;48.90;;;7.60;99.90;;;;;;5109185;28;20044;-39
2022/03/17 07:18:39;;;;;;;84.78;49.30;;;7.70;99.90;;;;;;5108501;28;20019;-39
2022/03/17 07:21:04;;;;;;;74.20;44.88;;;7.80;99.90;;;;;;5109166;28;20038;-39
2022/03/17 07:23:31;;;;;;;85.53;48.33;;;7.90;99.90;;;;;;5107289;28;20480;-39
2022/03/17 07:25:56;;;;;;;77.65;45.92;;;8.00;99.90;;;;;;5108688;28;20178;-39
2022/03/17 07:28:22;;;;;;;77.97;45.83;;;8.10;99.90;;;;;;5108097;28;20020;-39
2022/03/17 07:30:48;;;;;;;78.53;45.97;;;8.20;99.90;;;;;;5092154;28;20120;-39
2022/03/17 07:33:13;;;;;;;83.57;47.15;;;8.40;99.90;;;;;;5087451;28;20036;-39
2022/03/17 07:35:39;;;;;;;78.38;46.83;;;8.40;99.90;;;;;;5086698;28;20020;-39
2022/03/17 07:38:06;;;;;;;78.20;46.28;;;8.40;99.90;;;;;;5087074;28;20023;-39
2022/03/17 07:40:32;;;;;;;76.35;45.65;;;8.50;99.90;;;;;;5098808;28;20024;-39
2022/03/17 07:43:00;;;;;;;79.20;45.15;;;8.70;99.90;;;;;;5107368;28;20081;-39
2022/03/17 07:45:26;;;;;;;72.72;44.33;;;8.70;99.90;;;;;;5106002;28;20024;-39
2022/03/17 07:47:52;;;;;;;76.15;47.08;;;8.70;99.90;;;;;;5106853;28;20024;-39
2022/03/17 07:50:18;;;;;;;82.60;46.25;;;8.80;99.90;;;;;;5108866;28;20053;-39
2022/03/17 07:52:44;;;;;;;77.25;44.40;;;8.80;99.90;;;;;;5106887;28;20480;-39
2022/03/17 07:55:10;;;;;;;73.10;43.55;;;8.80;99.90;;;;;;5108532;28;20023;-40
2022/03/17 07:57:36;;;;;;;73.13;44.75;;;8.90;99.90;;;;;;5107944;28;20027;-38
2022/03/17 08:00:04;;;;;;;68.30;42.42;;;9.00;99.90;;;;;;5096311;28;20040;-39
2022/03/17 08:02:30;;;;;;;69.30;43.58;;;9.00;99.90;;;;;;5068018;28;20021;-39
2022/03/17 08:04:57;;;;;;;71.80;44.00;;;9.00;99.90;;;;;;5084067;28;20020;-39
2022/03/17 08:07:23;;;;;;;77.00;45.13;;;9.00;99.90;;;;;;5084131;28;20116;-38
2022/03/17 08:09:48;;;;;;;67.50;42.33;;;9.00;99.90;;;;;;5100202;28;20099;-39
2022/03/17 08:12:14;;;;;;;66.60;43.13;;;9.10;99.90;;;;;;5108611;28;20371;-39
2022/03/17 08:14:40;;;;;;;68.53;42.38;;;9.10;99.90;;;;;;5108346;28;20032;-39
2022/03/17 08:17:05;;;;;;;70.60;44.22;;;9.20;99.90;;;;;;5107673;28;20216;-39
2022/03/17 08:19:31;;;;;;;68.90;43.28;;;9.20;99.90;;;;;;5108228;28;20026;-39
2022/03/17 08:21:57;;;;;;;68.07;43.20;;;9.30;99.90;;;;;;5108123;28;20080;-38
2022/03/17 08:24:23;;;;;;;70.13;42.88;;;9.40;99.90;;;;;;5106777;28;20016;-39
2022/03/17 08:26:48;;;;;;;76.28;44.92;;;9.50;99.90;;;;;;5107701;28;20498;-39
2022/03/17 08:29:14;;;;;;;69.22;43.08;;;9.60;99.90;;;;;;5090051;28;20519;-39
2022/03/17 08:31:40;;;;;;;71.70;42.90;;;9.60;99.90;;;;;;5088075;28;20024;-39
2022/03/17 08:34:05;;;;;;;68.82;43.50;;;9.60;99.90;;;;;;5087722;28;20168;-39
2022/03/17 08:36:32;;;;;;;67.22;42.20;;;9.70;99.90;;;;;;5088064;28;20036;-39
2022/03/17 08:38:57;;;;;;;67.80;41.85;;;9.70;99.90;;;;;;5090020;28;20020;-39
2022/03/17 08:41:23;;;;;;;64.15;39.63;;;9.70;99.90;;;;;;5104733;28;20045;-39
2022/03/17 08:43:51;;;;;;;66.53;42.08;;;9.70;99.90;;;;;;5111179;28;20507;-39
2022/03/17 08:49:19;;;;;;;64.82;42.10;;;9.80;99.90;;;;;;5071031;28;20581;-39
2022/03/17 08:51:47;;;;;;;68.20;43.67;;;9.80;99.90;;;;;;5071158;28;20062;-39
2022/03/17 08:54:12;;;;;;;65.50;41.05;;;9.80;99.90;;;;;;5071259;28;20179;-39
2022/03/17 08:56:38;;;;;;;67.35;42.50;;;9.80;99.90;;;;;;5083795;28;20038;-39
2022/03/17 08:59:05;;;;;;;62.30;40.92;;;9.80;99.90;;;;;;5080313;28;20419;-40
2022/03/17 09:01:30;;;;;;;62.05;40.00;;;9.80;99.90;;;;;;5078916;28;20505;-39
2022/03/17 09:03:56;;;;;;;63.78;41.35;;;9.90;99.90;;;;;;5081239;28;20025;-38
2022/03/17 09:06:24;;;;;;;67.93;43.15;;;10.00;99.90;;;;;;5079137;28;20036;-38
2022/03/17 09:08:50;;;;;;;64.28;42.10;;;10.00;99.90;;;;;;5085840;28;20395;-39
2022/03/17 09:11:15;;;;;;;64.10;42.30;;;10.10;99.90;;;;;;5090179;28;20120;-39
2022/03/17 09:13:41;;;;;;;66.32;41.88;;;10.20;99.90;;;;;;5089749;28;20115;-39
2022/03/17 09:16:08;;;;;;;60.88;40.40;;;10.20;99.90;;;;;;5090120;28;20370;-39
2022/03/17 09:18:34;;;;;;;67.35;41.83;;;10.30;99.90;;;;;;5088527;28;20114;-39
2022/03/17 09:21:00;;;;;;;67.22;43.15;;;10.40;99.90;;;;;;5089336;28;20232;-46
2022/03/17 09:23:29;;;;;;;70.57;42.80;;;10.50;99.90;;;;;;5089615;28;20016;-45
2022/03/17 09:25:55;;;;;;;63.78;42.17;;;10.60;99.90;;;;;;5089208;28;20028;-46
2022/03/17 09:28:21;;;;;;;65.15;41.05;;;10.70;99.90;;;;;;5088860;28;20020;-46
2022/03/17 09:30:46;;;;;;;69.47;43.05;;;10.80;99.90;;;;;;5089378;28;20384;-48
2022/03/17 09:33:12;;;;;;;66.38;41.72;;;10.90;99.90;;;;;;5089725;28;20028;-48
2022/03/17 09:35:37;;;;;;;63.38;40.92;;;11.00;99.90;;;;;;5080659;28;20225;-48
2022/03/17 09:38:04;;;;;;;63.45;40.60;;;11.20;99.90;;;;;;5077403;28;20454;-46
2022/03/17 09:40:30;;;;;;;60.67;39.00;;;11.30;99.90;;;;;;5098758;28;20529;-46
2022/03/17 09:43:18;;;;;;;64.63;41.58;;;11.50;99.90;;;;;;5110949;28;20023;-46
2022/03/17 09:45:42;;;;;;;64.32;41.92;;;11.60;99.90;;;;;;5111047;28;20027;-47
2022/03/17 09:48:10;;;;;;;58.38;40.72;;;11.60;99.90;;;;;;5110980;28;20384;-49
2022/03/17 09:50:37;;;;;;;58.28;40.33;;;11.60;99.90;;;;;;5111193;28;20015;-46
2022/03/17 09:53:02;;;;;;;65.18;40.85;;;12.00;99.90;;;;;;5110439;28;20084;-46
2022/03/17 09:55:28;;;;;;;59.58;39.58;;;12.30;99.90;;;;;;5111049;27;20386;-48
2022/03/17 09:57:53;;;;;;;62.00;39.25;;;12.40;99.90;;;;;;5110803;27;20100;-45
2022/03/17 10:00:19;;;;;;;57.45;37.97;;;12.40;99.50;;;;;;5111045;28;20036;-46
2022/03/17 10:02:44;;;;;;;57.50;38.20;;;12.40;98.90;;;;;;5110980;27;20072;-46
2022/03/17 10:05:11;;;;;;;57.42;38.90;;;12.10;99.20;;;;;;5110867;28;20381;-46
2022/03/17 10:07:37;;;;;;;58.58;38.42;;;11.70;99.80;;;;;;5105655;28;20025;-45
2022/03/17 10:10:03;;;;;;;56.60;37.90;;;11.60;99.90;;;;;;5102234;28;20024;-47
2022/03/17 10:12:30;;;;;;;61.47;39.22;;;11.40;99.90;;;;;;5109668;28;20467;-48
2022/03/17 10:14:56;;;;;;;63.35;39.35;;;11.60;99.90;;;;;;5110754;28;20466;-46
2022/03/17 10:17:35;;;;;;;61.28;38.97;;;11.60;99.90;;;;;;5110003;28;20030;-49
2022/03/17 10:20:13;;;;;;;61.72;38.15;;;11.50;99.90;;;;;;5102256;28;20100;-49
2022/03/17 10:22:51;;;;;;;65.53;39.58;;;11.30;99.90;;;;;;5101660;28;20080;-46
2022/03/17 10:25:24;;;;;;;60.95;38.63;;;11.10;99.90;;;;;;5110513;28;20027;-46
2022/03/17 10:27:53;;;;;;;67.65;40.65;;;11.10;99.90;;;;;;5108435;28;20058;-45
2022/03/17 10:30:30;;;;;;;58.50;37.47;;;11.10;99.90;;;;;;5110457;28;20027;-46
2022/03/17 10:33:04;;;;;;;54.03;35.90;;;11.20;99.90;;;;;;5110041;28;20548;-47
2022/03/17 10:35:34;;;;;;;62.00;40.00;;;11.20;99.90;;;;;;5108980;28;20023;-46
2022/03/17 10:38:13;;;;;;;68.30;40.80;;;11.10;99.90;;;;;;5105971;28;20080;-48
2022/03/17 10:40:39;;;;;;;64.60;39.13;;;11.00;99.90;;;;;;5101670;28;20055;-47
2022/03/17 10:43:22;;;;;;;61.78;40.22;;;11.10;99.90;;;;;;5108596;28;20114;-46
2022/03/17 10:46:06;;;;;;;57.35;38.20;;;11.10;99.90;;;;;;5110010;28;20027;-46
2022/03/17 10:48:32;;;;;;;58.53;38.13;;;11.10;99.90;;;;;;5109585;28;20064;-45
2022/03/17 10:50:58;;;;;;;52.10;33.83;;;11.10;99.90;;;;;;5109796;27;20545;-45
2022/03/17 10:53:30;;;;;;;54.85;36.90;;;11.10;99.90;;;;;;5109692;28;20027;-45
2022/03/17 10:56:12;;;;;;;50.80;34.03;;;11.00;99.90;;;;;;5108535;28;20628;-46
2022/03/17 10:58:46;;;;;;;53.50;34.28;;;11.00;99.90;;;;;;5107913;28;20041;-49
2022/03/17 11:01:11;;;;;;;60.38;35.83;;;11.00;99.90;;;;;;5109400;28;20085;-45
2022/03/17 11:03:38;;;;;;;47.05;32.13;;;11.00;99.90;;;;;;5108415;28;20476;-44
2022/03/17 11:06:04;;;;;;;52.70;33.67;;;10.90;99.90;;;;;;5109401;28;20033;-46
2022/03/17 11:08:31;;;;;;;51.60;34.70;;;10.90;99.90;;;;;;5102182;28;20023;-46
2022/03/17 11:10:57;;;;;;;54.92;36.50;;;10.90;99.90;;;;;;5102633;28;20433;-45
2022/03/17 11:13:23;;;;;;;54.65;36.17;;;10.90;99.90;;;;;;5109507;28;20165;-45
2022/03/17 11:16:00;;;;;;;50.78;35.40;;;10.80;99.90;;;;;;5109518;28;20456;-44
2022/03/17 11:18:26;;;;;;;56.72;35.15;;;10.80;99.90;;;;;;5108906;28;20499;-45
2022/03/17 11:21:11;;;;;;;51.42;34.13;;;10.80;99.90;;;;;;5109143;28;20040;-44
2022/03/17 11:23:56;;;;;;;54.00;33.88;;;10.70;99.90;;;;;;5107709;28;20043;-44
2022/03/17 11:26:27;;;;;;;58.55;37.75;;;10.60;99.90;;;;;;5109404;28;20019;-48
2022/03/17 11:29:02;;;;;;;60.75;38.58;;;10.50;99.90;;;;;;5107612;28;20028;-44
2022/03/17 11:31:50;;;;;;;62.17;38.15;;;10.40;99.90;;;;;;5107952;28;20215;-45
2022/03/17 11:34:46;;;;;;;65.78;41.25;;;10.20;99.90;;;;;;5109417;28;20031;-45
2022/03/17 11:37:26;;;;;;;61.42;39.38;;;10.10;99.90;;;;;;5107066;28;20019;-44
2022/03/17 11:40:04;;;;;;;61.25;39.90;;;10.00;99.90;;;;;;5089107;28;20258;-44
2022/03/17 11:42:33;;;;;;;64.20;40.45;;;10.00;99.90;;;;;;5087550;28;20035;-44
2022/03/17 11:45:10;;;;;;;63.72;40.13;;;9.90;99.90;;;;;;5090335;28;20020;-44
2022/03/17 11:47:37;;;;;;;61.60;39.15;;;9.80;99.90;;;;;;5087853;28;20019;-45
2022/03/17 11:50:25;;;;;;;67.05;43.20;;;9.70;99.90;;;;;;5093295;28;20020;-45
2022/03/17 11:53:02;;;;;;;68.97;45.75;;;9.80;99.90;;;;;;5093147;28;20015;-45
2022/03/17 11:55:32;;;;;;;67.43;43.38;;;9.80;99.90;;;;;;5109042;28;20495;-46
2022/03/17 11:58:17;;;;;;;;;;;9.70;99.90;;;;;;5108831;28;20027;-45
2022/03/17 12:00:49;;;;;;;72.05;45.63;;;9.70;99.90;;;;;;5108821;28;19911;-44
2022/03/17 12:03:27;;;;;;;67.13;43.13;;;9.50;99.90;;;;;;5108976;28;20563;-46
2022/03/17 12:06:09;;;;;;;68.32;43.53;;;9.60;99.90;;;;;;5108790;28;20024;-46
2022/03/17 12:08:37;;;;;;;70.88;45.25;;;9.50;99.90;;;;;;5108397;28;20080;-45
2022/03/17 12:11:07;;;;;;;72.78;46.47;;;9.50;99.90;;;;;;5108974;28;20019;-45
2022/03/17 12:13:35;;;;;;;78.32;47.75;;;9.40;99.90;;;;;;5108779;28;20122;-48
2022/03/17 12:16:01;;;;;;;78.72;50.15;;;9.30;99.90;;;;;;5090737;28;20397;-46
2022/03/17 12:18:28;;;;;;;74.10;47.53;;;9.30;99.90;;;;;;5109441;28;20047;-47
2022/03/17 12:20:53;;;;;;;79.85;49.58;;;9.30;99.90;;;;;;5112747;28;20028;-46
2022/03/17 12:23:45;;;;;;;79.90;49.97;;;9.10;99.90;;;;;;5104620;28;20500;-45
2022/03/17 12:26:11;;;;;;;77.63;48.00;;;9.10;99.90;;;;;;5102836;28;20027;-46
2022/03/17 12:28:46;;;;;;;81.30;49.97;;;9.10;99.90;;;;;;5112250;28;20036;-46
2022/03/17 12:31:14;;;;;;;82.60;51.42;;;9.00;99.90;;;;;;5112649;28;20026;-45
2022/03/17 12:33:42;;;;;;;84.53;51.22;;;8.90;99.90;;;;;;5112580;28;20039;-46
2022/03/17 12:36:08;;;;;;;82.88;51.72;;;8.90;99.90;;;;;;5111566;28;20028;-48
2022/03/17 12:38:37;;;;;;;86.22;52.30;;;8.80;99.90;;;;;;5110805;28;20031;-46
2022/03/17 12:41:02;;;;;;;85.93;52.65;;;8.80;99.90;;;;;;5112876;28;20475;-46
2022/03/17 12:43:33;;;;;;;88.25;50.55;;;8.80;99.90;;;;;;5096815;28;20061;-46
2022/03/17 12:45:59;;;;;;;73.13;45.40;;;8.70;99.90;;;;;;5104873;28;20043;-45
2022/03/17 12:48:25;;;;;;;74.57;45.90;;;8.70;99.90;;;;;;5112556;28;20072;-46
2022/03/17 12:50:51;;;;;;;72.47;44.28;;;8.60;99.90;;;;;;5113160;28;20031;-45
2022/03/17 12:53:16;;;;;;;74.13;43.70;;;8.60;99.90;;;;;;5113005;27;20392;-46